Rural Valley, PA

2:18 PM EDT on July 25, 2016 (GMT -0400)
Rural Valley | | Change Station
Active Advisory: Severe Thunderstorm Watch Active Notice: Local Storm Report

Elev 1133 ft 40.76 °N, 79.32 °W | Updated 7 seconds ago

Mostly Cloudy
Mostly Cloudy
94.3 °F
Feels Like 115 °F
N
9.2
Wind Variable Wind from East
Gusts 12.1 mph

Today
High -- | Low -- °F
--% Chance of Precip.
Yesterday
High -- | Low -- °F
Precip. -- in
Pressure 29.97 in
Visibility 10.0 miles
Clouds Scattered Clouds 4000 ft
Mostly Cloudy 6000 ft
Heat Index 115 °F
Dew Point 81 °F
Humidity 65%
Rainfall 0.00 in
Snow Depth Not available.
6:07 AM 8:39 PM
Waning Gibbous, 63% visible
METAR KIDI 251755Z AUTO 26013G19KT 10SM SCT040 BKN060 33/24 A2997 RMK A01
Pressure 29.97 in
Visibility 10.0 miles
Clouds Scattered Clouds 4000 ft
Mostly Cloudy 6000 ft
Heat Index 115 °F
Dew Point 81 °F
Humidity 65%
Rainfall 0.00 in
Snow Depth Not available.
6:07 AM 8:39 PM
Waning Gibbous, 63% visible
METAR KIDI 251755Z AUTO 26013G19KT 10SM SCT040 BKN060 33/24 A2997 RMK A01
Record highs are possible for parts of the Northeast Monday and Tuesday, as parts of the central U.S. take a little breather from the worst of summer's dog day heat.

Expansive high pressure in the upper atmosphere will focus on parts of the East and West this week, sending heat indices well into the triple digits from the Mid-Atlantic states into the South.

10-Day Weather Forecast

Almanac

Astronomy

Jul. 25, 2016 Rise Set
Actual Time
Civil Twilight
Nautical Twilight
Astronomical Twilight
Moon
Length of Visible Light
Length of Day
Tomorrow will be .
, % of the Moon is Illuminated

Today's Extremes

State Highs State Lows

Community

WunderPhotos

Upload Photos

1,927,365 photos uploaded!

WunderBlog® & News

Nearby

Air Quality

  Air Quality AQ Index Pollutant
Not available.

Snow Depth

Station Depth Elevation

Earthquake Activity

City Distance Mag. Time & Date
Minimum magnitude displayed is 2.5.

Coastal Water Temperatures

Place Temperature

Stations

Nearby Weather Stations

Station Location Temp. Windchill Dew Point Humidity Wind Precip. Elev Updated Type
                   

Watches & Warnings

Severe Thunderstorm Watch
Issued: 2:03 PM EDT Jul. 25, 2016 – National Weather Service

Severe Thunderstorm Watch 415 remains in effect until 800 PM EDT

PA
. Pennsylvania counties included are

Adams Armstrong Bedford
Berks Blair Bradford
Bucks Cambria Cameron
Carbon centre Chester
Clarion Clearfield Clinton
Columbia Cumberland Dauphin
Delaware Elk Fayette
Forest Franklin Fulton
Huntingdon Indiana Jefferson
Juniata Lackawanna Lancaster
Lebanon Lehigh Luzerne
Lycoming McKean Mifflin
Monroe Montgomery Montour
Northampton Northumberland Perry
Philadelphia Pike Potter
Schuylkill Snyder Somerset
Sullivan Susquehanna Tioga
Union Warren Wayne
Westmoreland Wyoming York